Time;durP1;ratioP1;P1;durP2;ratioP2;P2;SDS_P1;SDS_P2;PMS_P1;PMS_P2;Temp;Humidity;BMP_temperature;BMP_pressure;BME280_temperature;BME280_humidity;BME280_pressure;Samples;Min_cycle;Max_cycle;Signal;HPM_P1;HPM_P2
2021/04/16 00:01:54;;;;;;;8.95;5.00;;;4.70;99.90;;;;;;5088939;28;20196;-76
2021/04/16 00:04:20;;;;;;;7.10;4.38;;;4.70;99.90;;;;;;5093075;28;20232;-76
2021/04/16 00:06:47;;;;;;;9.95;5.15;;;4.70;99.90;;;;;;5087038;28;20201;-76
2021/04/16 00:09:14;;;;;;;7.22;4.68;;;4.70;99.90;;;;;;5086826;28;20227;-76
2021/04/16 00:11:41;;;;;;;5.68;5.13;;;4.70;99.90;;;;;;5087970;28;20245;-76
2021/04/16 00:14:08;;;;;;;9.80;4.97;;;4.60;99.90;;;;;;5087337;28;20222;-76
2021/04/16 00:16:34;;;;;;;8.65;4.65;;;4.50;99.90;;;;;;5086885;28;20197;-76
2021/04/16 00:19:01;;;;;;;12.07;5.35;;;4.40;99.90;;;;;;5087256;28;20212;-76
2021/04/16 00:21:28;;;;;;;14.85;4.90;;;4.40;99.90;;;;;;5090701;28;20211;-76
2021/04/16 00:23:55;;;;;;;14.73;4.38;;;4.40;99.90;;;;;;5086723;28;20205;-76
2021/04/16 00:26:22;;;;;;;10.80;5.68;;;4.50;99.90;;;;;;5087393;28;20219;-76
2021/04/16 00:28:49;;;;;;;12.23;5.32;;;4.50;99.90;;;;;;5087033;28;20200;-76
2021/04/16 00:31:18;;;;;;;35.65;5.80;;;4.50;99.90;;;;;;5087306;28;20211;-77
2021/04/16 00:33:45;;;;;;;11.73;4.75;;;4.50;99.90;;;;;;5092866;28;20200;-76
2021/04/16 00:36:12;;;;;;;14.68;5.78;;;4.50;99.90;;;;;;5088363;28;20196;-76
2021/04/16 00:38:39;;;;;;;15.30;5.30;;;4.40;99.90;;;;;;5093302;28;20240;-77
2021/04/16 00:41:11;;;;;;;8.85;5.03;;;4.40;99.90;;;;;;5087170;28;20207;-76
2021/04/16 00:43:38;;;;;;;8.13;5.50;;;4.40;99.90;;;;;;5086831;28;20200;-77
2021/04/16 00:46:20;;;;;;;14.35;5.22;;;4.40;99.90;;;;;;5090383;28;20289;-77
2021/04/16 00:48:50;;;;;;;4.82;4.40;;;4.40;99.90;;;;;;5094023;28;20201;-76
2021/04/16 00:51:21;;;;;;;8.63;5.15;;;4.40;99.90;;;;;;5090660;28;20200;-77
2021/04/16 00:53:48;;;;;;;10.15;4.60;;;4.50;99.90;;;;;;5094673;28;20209;-77
2021/04/16 00:56:17;;;;;;;6.40;4.82;;;4.50;99.90;;;;;;5086765;28;20227;-76
2021/04/16 00:58:44;;;;;;;9.35;4.93;;;4.50;99.90;;;;;;5097051;28;20677;-76
2021/04/16 01:01:11;;;;;;;11.18;4.65;;;4.60;99.90;;;;;;5086757;28;20224;-76
2021/04/16 01:03:37;;;;;;;8.63;5.63;;;4.60;99.90;;;;;;5086555;28;20228;-76
2021/04/16 01:06:07;;;;;;;8.18;4.50;;;4.60;99.90;;;;;;5090010;28;20240;-76
2021/04/16 01:08:34;;;;;;;6.82;4.93;;;4.60;99.90;;;;;;5088992;28;20211;-76
2021/04/16 01:11:02;;;;;;;6.10;4.60;;;4.70;99.90;;;;;;5092301;28;20223;-76
2021/04/16 01:13:30;;;;;;;5.72;5.13;;;4.70;99.90;;;;;;5094984;28;20207;-76
2021/04/16 01:16:00;;;;;;;5.20;3.90;;;4.80;99.90;;;;;;5091282;28;20591;-76
2021/04/16 01:18:29;;;;;;;6.63;5.25;;;4.90;99.90;;;;;;5085969;28;20204;-76
2021/04/16 01:21:00;;;;;;;4.70;4.30;;;5.00;99.90;;;;;;5086188;28;20207;-76
2021/04/16 01:23:35;;;;;;;11.32;5.05;;;5.00;99.90;;;;;;5086080;28;20204;-76
2021/04/16 01:26:05;;;;;;;12.05;5.03;;;5.10;99.90;;;;;;5098428;28;20231;-76
2021/04/16 01:28:31;;;;;;;9.02;5.32;;;5.10;99.90;;;;;;5091074;28;20211;-76
2021/04/16 01:31:01;;;;;;;9.65;5.15;;;5.10;99.90;;;;;;5086777;28;20208;-76
2021/04/16 01:33:31;;;;;;;9.07;4.65;;;5.20;99.90;;;;;;5092697;28;20203;-76
2021/04/16 01:35:58;;;;;;;11.77;4.43;;;5.20;99.90;;;;;;5085170;28;20716;-76
2021/04/16 01:38:25;;;;;;;9.75;4.82;;;5.20;99.90;;;;;;5088875;28;20200;-76
2021/04/16 01:40:51;;;;;;;6.53;4.07;;;5.30;99.90;;;;;;5085371;28;20201;-76
2021/04/16 01:43:23;;;;;;;7.15;4.47;;;5.30;99.90;;;;;;5096866;28;20192;-76
2021/04/16 01:45:58;;;;;;;9.15;4.47;;;5.30;99.90;;;;;;5088174;28;20243;-76
2021/04/16 01:48:24;;;;;;;6.00;4.80;;;5.30;99.90;;;;;;5088676;28;20214;-76
2021/04/16 01:50:51;;;;;;;6.97;4.45;;;5.30;99.90;;;;;;5092445;28;20203;-76
2021/04/16 01:53:17;;;;;;;7.95;4.15;;;5.30;99.90;;;;;;5086042;28;20193;-76
2021/04/16 01:55:51;;;;;;;9.40;4.65;;;5.30;99.90;;;;;;5086323;28;20281;-75
2021/04/16 01:58:17;;;;;;;11.80;4.40;;;5.40;99.90;;;;;;5086255;28;20230;-75
2021/04/16 02:00:45;;;;;;;6.97;4.38;;;5.40;99.90;;;;;;5094325;28;20204;-76
2021/04/16 02:03:12;;;;;;;7.88;4.50;;;5.40;99.90;;;;;;5089387;28;21267;-76
2021/04/16 02:05:38;;;;;;;8.88;4.70;;;5.30;99.90;;;;;;5085387;28;20232;-76
2021/04/16 02:08:06;;;;;;;6.43;4.28;;;5.30;99.90;;;;;;5085775;28;20697;-76
2021/04/16 02:10:32;;;;;;;8.40;4.57;;;5.40;99.90;;;;;;5085619;28;20615;-76
2021/04/16 02:12:59;;;;;;;7.45;3.80;;;5.30;99.90;;;;;;5085777;28;21036;-76
2021/04/16 02:15:25;;;;;;;7.10;3.95;;;5.30;99.90;;;;;;5085710;28;20200;-77
2021/04/16 02:17:52;;;;;;;7.35;3.70;;;5.30;99.90;;;;;;5097017;28;20199;-76
2021/04/16 02:20:22;;;;;;;6.88;4.00;;;5.30;99.90;;;;;;5095195;28;20197;-76
2021/04/16 02:22:48;;;;;;;8.98;4.90;;;5.30;99.90;;;;;;5092558;28;20211;-76
2021/04/16 02:25:16;;;;;;;5.82;4.10;;;5.20;99.90;;;;;;5090207;28;20231;-76
2021/04/16 02:27:42;;;;;;;7.03;4.88;;;5.20;99.90;;;;;;5085582;28;20569;-76
2021/04/16 02:30:10;;;;;;;6.30;4.65;;;5.20;99.90;;;;;;5085061;28;20197;-76
2021/04/16 02:32:37;;;;;;;4.85;4.07;;;5.20;99.90;;;;;;5088623;28;20208;-76
2021/04/16 02:35:06;;;;;;;7.65;5.13;;;5.20;99.90;;;;;;5085568;28;20219;-76
2021/04/16 02:37:33;;;;;;;8.93;5.15;;;5.20;99.90;;;;;;5085486;28;20200;-76
2021/04/16 02:40:00;;;;;;;6.47;4.47;;;5.10;99.90;;;;;;5093970;28;20204;-76
2021/04/16 02:42:26;;;;;;;5.90;4.35;;;5.10;99.90;;;;;;5089828;28;20200;-76
2021/04/16 02:44:54;;;;;;;5.82;4.68;;;5.10;99.90;;;;;;5084984;28;20232;-76
2021/04/16 02:47:20;;;;;;;8.50;4.80;;;5.10;99.90;;;;;;5088853;28;20200;-75
2021/04/16 02:49:47;;;;;;;7.20;4.45;;;5.10;99.90;;;;;;5094737;28;20215;-76
2021/04/16 02:52:14;;;;;;;10.25;4.53;;;5.10;99.90;;;;;;5094223;28;20252;-76
2021/04/16 02:54:41;;;;;;;7.82;4.43;;;5.20;99.90;;;;;;5088870;28;20211;-76
2021/04/16 02:57:07;;;;;;;8.15;4.18;;;5.20;99.90;;;;;;5089022;28;20223;-76
2021/04/16 02:59:34;;;;;;;14.02;4.40;;;5.20;99.90;;;;;;5088990;28;20197;-76
2021/04/16 03:02:00;;;;;;;7.22;3.95;;;5.20;99.90;;;;;;5095578;28;20223;-76
2021/04/16 03:04:27;;;;;;;8.63;4.38;;;5.10;99.90;;;;;;5089050;28;20263;-76
2021/04/16 03:06:53;;;;;;;4.85;3.75;;;5.20;99.90;;;;;;5094383;28;20246;-76
2021/04/16 03:09:21;;;;;;;7.47;4.30;;;5.30;99.90;;;;;;5094199;28;20646;-76
2021/04/16 03:11:47;;;;;;;5.25;3.92;;;5.30;99.90;;;;;;5097176;28;20205;-77
2021/04/16 03:14:14;;;;;;;5.72;4.82;;;5.30;99.90;;;;;;5090470;28;20200;-77
2021/04/16 03:16:40;;;;;;;8.00;5.47;;;5.30;99.90;;;;;;5088614;28;20215;-77
2021/04/16 03:19:09;;;;;;;5.55;4.13;;;5.30;99.90;;;;;;5099049;28;20215;-77
2021/04/16 03:21:36;;;;;;;5.93;4.18;;;5.30;99.90;;;;;;5097370;28;20192;-77
2021/04/16 03:24:03;;;;;;;6.18;4.90;;;5.30;99.90;;;;;;5095890;28;20259;-77
2021/04/16 03:26:30;;;;;;;6.30;4.97;;;5.30;99.90;;;;;;5098019;28;20200;-77
2021/04/16 03:29:00;;;;;;;5.75;4.50;;;5.30;99.90;;;;;;5089140;28;20200;-76
2021/04/16 03:31:28;;;;;;;5.05;4.60;;;5.30;99.90;;;;;;5092785;28;20192;-76
2021/04/16 03:33:56;;;;;;;7.13;4.90;;;5.30;99.90;;;;;;5092093;28;20200;-76
2021/04/16 03:36:22;;;;;;;9.55;4.35;;;5.30;99.90;;;;;;5088162;28;20204;-76
2021/04/16 03:38:49;;;;;;;7.47;4.47;;;5.40;99.90;;;;;;5088681;28;20205;-76
2021/04/16 03:41:17;;;;;;;4.85;4.35;;;5.30;99.90;;;;;;5094124;28;20739;-76
2021/04/16 03:43:45;;;;;;;4.97;4.30;;;5.40;99.90;;;;;;5091916;28;20200;-76
2021/04/16 03:46:12;;;;;;;6.30;4.43;;;5.40;99.90;;;;;;5094273;28;20228;-76
2021/04/16 03:48:39;;;;;;;9.23;5.07;;;5.40;99.90;;;;;;5092888;28;20217;-76
2021/04/16 03:51:07;;;;;;;8.82;5.00;;;5.50;99.90;;;;;;5088372;28;20208;-77
2021/04/16 03:53:35;;;;;;;5.53;4.25;;;5.50;99.90;;;;;;5087759;28;20208;-76
2021/04/16 03:56:01;;;;;;;9.23;4.28;;;5.50;99.90;;;;;;5087651;28;20219;-76
2021/04/16 03:58:28;;;;;;;5.78;4.25;;;5.40;99.90;;;;;;5088044;28;20250;-75
2021/04/16 04:00:55;;;;;;;10.10;5.38;;;5.40;99.90;;;;;;5091037;28;20204;-76
2021/04/16 04:03:21;;;;;;;7.07;5.25;;;5.50;99.90;;;;;;5093603;28;20258;-76
2021/04/16 04:05:48;;;;;;;10.43;5.57;;;5.50;99.90;;;;;;5087501;28;20243;-76
2021/04/16 04:08:15;;;;;;;7.70;4.93;;;5.50;99.90;;;;;;5087530;28;20612;-76
2021/04/16 04:10:41;;;;;;;7.70;4.53;;;5.50;99.90;;;;;;5092498;28;20227;-76
2021/04/16 04:13:10;;;;;;;6.68;4.30;;;5.50;99.90;;;;;;5087743;28;20226;-76
2021/04/16 04:15:37;;;;;;;9.40;5.35;;;5.50;99.90;;;;;;5101205;28;20254;-76
2021/04/16 04:18:05;;;;;;;6.78;4.70;;;5.50;99.90;;;;;;5090022;28;20301;-77
2021/04/16 04:20:34;;;;;;;7.88;4.32;;;5.50;99.90;;;;;;5102089;28;20200;-78
2021/04/16 04:23:03;;;;;;;8.10;5.22;;;5.60;99.90;;;;;;5093856;28;20207;-78
2021/04/16 04:25:31;;;;;;;11.88;4.70;;;5.60;99.90;;;;;;5094220;28;20228;-78
2021/04/16 04:28:00;;;;;;;7.25;4.45;;;5.60;99.90;;;;;;5089102;28;20201;-77
2021/04/16 04:30:29;;;;;;;8.50;5.20;;;5.70;99.90;;;;;;5094664;28;20204;-78
2021/04/16 04:32:56;;;;;;;5.85;4.97;;;5.60;99.90;;;;;;5089252;28;20204;-77
2021/04/16 04:35:24;;;;;;;6.35;4.90;;;5.60;99.90;;;;;;5088772;28;20207;-77
2021/04/16 04:37:51;;;;;;;9.63;4.90;;;5.60;99.90;;;;;;5088764;28;20196;-77
2021/04/16 04:40:19;;;;;;;7.90;4.75;;;5.70;99.90;;;;;;5094542;28;20458;-77
2021/04/16 04:42:46;;;;;;;8.30;5.00;;;5.70;99.90;;;;;;5097162;28;20208;-78
2021/04/16 04:45:14;;;;;;;7.82;5.13;;;5.80;99.90;;;;;;5088547;28;20239;-76
2021/04/16 04:47:41;;;;;;;8.10;4.85;;;5.80;99.90;;;;;;5086997;28;20231;-77
2021/04/16 04:50:10;;;;;;;8.20;5.45;;;5.90;99.90;;;;;;5086614;28;20197;-76
2021/04/16 04:52:39;;;;;;;6.07;4.53;;;5.90;99.90;;;;;;5092867;28;20571;-77
2021/04/16 04:55:08;;;;;;;7.18;4.22;;;6.00;99.90;;;;;;5086573;28;20211;-77
2021/04/16 04:57:34;;;;;;;6.82;4.30;;;6.00;99.90;;;;;;5086295;28;20215;-77
2021/04/16 05:00:01;;;;;;;10.30;4.82;;;6.10;99.90;;;;;;5090349;28;20208;-77
2021/04/16 05:02:27;;;;;;;8.95;4.70;;;6.10;99.90;;;;;;5096450;28;20207;-76
2021/04/16 05:04:54;;;;;;;9.23;5.32;;;6.10;99.90;;;;;;5094099;28;20228;-77
2021/04/16 05:07:20;;;;;;;6.90;4.85;;;6.10;99.90;;;;;;5086358;28;20250;-76
2021/04/16 05:09:47;;;;;;;6.97;4.30;;;6.10;99.90;;;;;;5085773;28;20205;-77
2021/04/16 05:12:14;;;;;;;7.22;4.68;;;6.10;99.90;;;;;;5087551;28;20200;-76
2021/04/16 05:14:40;;;;;;;9.27;5.70;;;6.00;99.90;;;;;;5098224;28;20231;-76
2021/04/16 05:17:07;;;;;;;9.40;5.40;;;6.00;99.90;;;;;;5089478;28;20223;-76
2021/04/16 05:19:34;;;;;;;6.22;4.18;;;6.10;99.90;;;;;;5093366;28;20201;-76
2021/04/16 05:22:03;;;;;;;7.25;4.30;;;6.10;99.90;;;;;;5088896;28;20207;-76
2021/04/16 05:24:31;;;;;;;10.65;5.70;;;6.20;99.90;;;;;;5088678;28;20231;-76
2021/04/16 05:27:00;;;;;;;8.30;5.70;;;6.20;99.90;;;;;;5090222;28;20203;-76
2021/04/16 05:29:26;;;;;;;8.27;5.07;;;6.30;99.90;;;;;;5090015;28;20204;-76
2021/04/16 05:31:53;;;;;;;7.35;5.13;;;6.40;99.90;;;;;;5087484;28;20254;-75
2021/04/16 05:34:19;;;;;;;8.90;4.95;;;6.40;99.90;;;;;;5087987;28;20558;-76
2021/04/16 05:36:47;;;;;;;5.10;4.60;;;6.50;99.90;;;;;;5086728;28;20200;-76
2021/04/16 05:39:13;;;;;;;8.90;5.00;;;6.60;99.90;;;;;;5087024;28;20197;-76
2021/04/16 05:41:40;;;;;;;7.68;5.13;;;6.70;99.90;;;;;;5086309;28;20205;-76
2021/04/16 05:44:07;;;;;;;5.68;4.88;;;6.70;99.90;;;;;;5086402;28;20208;-76
2021/04/16 05:46:34;;;;;;;8.60;5.40;;;6.80;99.90;;;;;;5086354;28;20235;-77
2021/04/16 05:49:00;;;;;;;5.97;5.18;;;6.90;99.90;;;;;;5086867;28;20195;-77
2021/04/16 05:51:27;;;;;;;9.90;6.00;;;6.90;99.90;;;;;;5091089;28;20197;-77
2021/04/16 05:53:53;;;;;;;9.75;6.25;;;7.00;99.90;;;;;;5098017;28;20202;-76
2021/04/16 05:56:20;;;;;;;9.00;7.03;;;7.10;99.90;;;;;;5090887;28;20204;-76
2021/04/16 05:58:47;;;;;;;8.70;6.05;;;7.10;99.90;;;;;;5086316;28;20195;-76
2021/04/16 06:01:15;;;;;;;6.88;5.28;;;7.20;99.90;;;;;;5090784;28;20206;-76
2021/04/16 06:03:44;;;;;;;7.93;5.82;;;7.30;99.90;;;;;;5089054;28;20254;-76
2021/04/16 06:06:10;;;;;;;14.45;5.55;;;7.30;99.90;;;;;;5093051;28;20294;-80
2021/04/16 06:08:37;;;;;;;7.95;5.65;;;7.40;99.90;;;;;;5090792;28;20205;-77
2021/04/16 06:11:04;;;;;;;7.60;4.70;;;7.40;99.90;;;;;;5089570;28;20208;-77
2021/04/16 06:13:31;;;;;;;7.22;6.38;;;7.50;99.90;;;;;;5085374;28;20200;-77
2021/04/16 06:15:59;;;;;;;11.07;6.50;;;7.60;99.90;;;;;;5091241;28;20248;-76
2021/04/16 06:18:26;;;;;;;8.10;5.80;;;7.70;99.90;;;;;;5091077;28;20231;-77
2021/04/16 06:20:52;;;;;;;7.70;5.15;;;7.80;99.90;;;;;;5096495;28;20194;-77
2021/04/16 06:23:19;;;;;;;13.77;5.90;;;7.70;99.90;;;;;;5092109;28;20196;-77
2021/04/16 06:25:45;;;;;;;6.82;5.25;;;7.80;99.90;;;;;;5096730;28;20236;-77
2021/04/16 06:28:13;;;;;;;8.13;7.00;;;7.70;99.90;;;;;;5090861;28;20715;-77
2021/04/16 06:30:40;;;;;;;8.10;6.00;;;7.80;99.90;;;;;;5089588;28;20208;-76
2021/04/16 06:33:15;;;;;;;10.65;6.78;;;7.80;99.90;;;;;;5096593;28;20200;-77
2021/04/16 06:35:48;;;;;;;11.48;6.47;;;7.90;99.90;;;;;;5096864;28;20199;-77
2021/04/16 06:38:16;;;;;;;10.10;6.72;;;8.10;99.90;;;;;;5091034;28;20208;-76
2021/04/16 06:40:46;;;;;;;13.52;5.95;;;8.20;99.90;;;;;;5094915;28;20198;-76
2021/04/16 06:43:13;;;;;;;7.95;6.03;;;8.30;99.90;;;;;;5094263;28;20207;-77
2021/04/16 06:45:39;;;;;;;10.82;6.50;;;8.20;99.90;;;;;;5090517;28;20220;-77
2021/04/16 06:48:08;;;;;;;16.40;6.82;;;8.20;99.90;;;;;;5090014;28;20245;-77
2021/04/16 06:50:36;;;;;;;11.43;6.85;;;8.10;99.90;;;;;;5093728;28;20454;-76
2021/04/16 06:53:09;;;;;;;14.15;6.55;;;8.00;99.90;;;;;;5100982;28;20200;-77
2021/04/16 06:55:50;;;;;;;10.93;7.00;;;8.00;99.90;;;;;;5095760;28;20719;-77
2021/04/16 06:58:20;;;;;;;8.05;6.63;;;8.00;99.90;;;;;;5095240;28;20200;-77
2021/04/16 07:00:49;;;;;;;14.45;5.80;;;8.10;99.90;;;;;;5089071;28;20204;-77
2021/04/16 07:03:24;;;;;;;15.40;6.57;;;8.30;99.90;;;;;;5088476;28;20239;-77
2021/04/16 07:05:53;;;;;;;12.18;6.88;;;8.50;99.90;;;;;;5087642;28;20315;-76
2021/04/16 07:08:28;;;;;;;7.68;5.63;;;8.90;99.90;;;;;;5091475;28;20208;-77
2021/04/16 07:10:59;;;;;;;10.05;5.90;;;9.40;99.90;;;;;;5097402;28;20211;-76
2021/04/16 07:13:33;;;;;;;8.48;5.47;;;9.90;99.90;;;;;;5090512;28;20227;-76
2021/04/16 07:16:00;;;;;;;14.02;6.43;;;10.50;99.90;;;;;;5095481;28;20208;-77
2021/04/16 07:18:31;;;;;;;6.28;5.38;;;11.00;99.90;;;;;;5095600;28;20200;-76
2021/04/16 07:20:58;;;;;;;9.27;5.90;;;11.50;99.90;;;;;;5100819;28;20597;-77
2021/04/16 07:23:26;;;;;;;9.10;5.90;;;11.90;99.90;;;;;;5096454;28;21245;-77
2021/04/16 07:26:05;;;;;;;8.15;5.68;;;12.20;99.90;;;;;;5088531;28;20226;-76
2021/04/16 07:28:49;;;;;;;7.40;5.55;;;12.70;99.90;;;;;;5100150;28;20269;-78
2021/04/16 07:31:42;;;;;;;7.47;5.35;;;13.10;99.90;;;;;;5095299;28;20204;-76
2021/04/16 07:34:31;;;;;;;8.98;5.93;;;13.30;99.90;;;;;;5093229;28;20208;-75
2021/04/16 07:37:13;;;;;;;7.43;5.20;;;13.60;98.70;;;;;;5101638;28;20249;-77
2021/04/16 07:39:46;;;;;;;7.43;5.57;;;13.80;97.20;;;;;;5094717;28;20201;-77
2021/04/16 07:42:22;;;;;;;9.07;5.03;;;14.00;96.90;;;;;;5099892;28;20518;-77
2021/04/16 07:45:17;;;;;;;10.73;4.80;;;14.10;96.60;;;;;;5088591;28;20465;-77
2021/04/16 07:47:45;;;;;;;7.38;5.40;;;14.40;95.30;;;;;;5078793;28;20385;-77
2021/04/16 07:50:25;;;;;;;6.22;4.22;;;14.40;94.60;;;;;;5095750;28;20200;-77
2021/04/16 07:52:52;;;;;;;11.07;5.78;;;14.70;93.80;;;;;;5092135;28;20665;-76
2021/04/16 07:55:23;;;;;;;9.70;5.22;;;15.00;93.70;;;;;;5088064;28;20275;-76
2021/04/16 07:58:08;;;;;;;6.55;4.25;;;15.40;92.70;;;;;;5087354;28;20707;-76
2021/04/16 08:00:38;;;;;;;5.03;4.45;;;15.80;91.10;;;;;;5093243;28;20709;-76
2021/04/16 08:03:14;;;;;;;6.32;4.40;;;16.20;90.30;;;;;;5091068;28;20243;-76
2021/04/16 08:05:43;;;;;;;9.65;4.32;;;16.60;89.50;;;;;;5090400;28;20310;-76
2021/04/16 08:08:14;;;;;;;9.60;4.38;;;17.00;86.10;;;;;;5092201;28;20204;-76
2021/04/16 08:10:43;;;;;;;7.30;4.18;;;17.30;85.50;;;;;;5088851;28;20208;-76
2021/04/16 08:13:13;;;;;;;7.65;4.43;;;17.60;82.80;;;;;;5087563;28;20204;-76
2021/04/16 08:15:41;;;;;;;10.10;4.45;;;17.80;81.00;;;;;;5090756;28;20203;-76
2021/04/16 08:18:09;;;;;;;9.32;4.28;;;17.90;79.70;;;;;;5087510;28;20204;-76
2021/04/16 08:20:43;;;;;;;13.68;5.40;;;18.10;79.80;;;;;;5086899;28;20201;-76
2021/04/16 08:23:13;;;;;;;4.10;3.70;;;18.20;79.50;;;;;;5089542;28;20266;-76
2021/04/16 08:25:44;;;;;;;3.72;2.95;;;18.30;77.10;;;;;;5086459;28;20236;-76
2021/04/16 08:28:15;;;;;;;4.82;3.78;;;18.30;71.60;;;;;;5087785;28;20208;-76
2021/04/16 08:30:57;;;;;;;3.33;3.03;;;18.30;71.20;;;;;;5098585;28;20211;-76
2021/04/16 08:33:31;;;;;;;6.43;4.07;;;18.30;69.90;;;;;;5094158;28;20224;-76
2021/04/16 08:36:05;;;;;;;8.02;3.85;;;18.40;70.30;;;;;;5096043;28;20204;-76
2021/04/16 08:38:36;;;;;;;5.88;3.53;;;18.70;71.30;;;;;;5092441;28;20210;-76
2021/04/16 08:41:06;;;;;;;5.40;3.60;;;19.00;71.50;;;;;;5094409;28;20455;-76
2021/04/16 08:43:36;;;;;;;4.65;3.80;;;19.30;69.00;;;;;;5093688;28;20473;-76
2021/04/16 08:46:10;;;;;;;3.65;3.35;;;19.40;66.40;;;;;;5088319;28;20316;-76
2021/04/16 08:48:39;;;;;;;5.18;2.90;;;19.60;67.50;;;;;;5090727;28;20200;-76
2021/04/16 08:51:10;;;;;;;4.75;3.15;;;19.70;63.10;;;;;;5091079;28;20208;-76
2021/04/16 08:53:39;;;;;;;2.97;2.53;;;19.70;62.70;;;;;;5086915;28;20203;-76
2021/04/16 08:56:16;;;;;;;10.38;3.90;;;19.80;62.10;;;;;;5088487;28;20204;-76
2021/04/16 08:58:44;;;;;;;4.22;3.53;;;19.80;60.70;;;;;;5092221;28;20204;-76
2021/04/16 09:01:14;;;;;;;4.63;3.45;;;20.00;63.40;;;;;;5098040;28;20207;-76
2021/04/16 09:03:44;;;;;;;3.47;2.50;;;20.20;61.80;;;;;;5086405;28;20236;-76
2021/04/16 09:06:23;;;;;;;2.55;2.35;;;20.10;58.10;;;;;;5091895;28;20492;-76
2021/04/16 09:08:51;;;;;;;3.05;2.80;;;19.80;57.00;;;;;;5092807;28;20196;-77
2021/04/16 09:11:52;;;;;;;3.25;2.60;;;19.60;58.50;;;;;;5087003;28;20205;-77
2021/04/16 09:14:52;;;;;;;4.05;2.95;;;19.40;56.70;;;;;;5086199;28;20202;-76
2021/04/16 09:17:18;;;;;;;3.42;2.95;;;19.20;58.20;;;;;;5095081;28;20201;-76
2021/04/16 09:20:04;;;;;;;4.72;2.97;;;19.50;57.90;;;;;;5086143;28;20200;-76
2021/04/16 09:22:48;;;;;;;4.43;2.85;;;20.10;57.90;;;;;;5093544;28;20226;-76
2021/04/16 09:25:49;;;;;;;2.30;2.00;;;20.40;55.10;;;;;;5092733;28;20238;-76
2021/04/16 09:28:48;;;;;;;2.90;2.45;;;19.80;54.40;;;;;;5092676;28;20196;-76
2021/04/16 09:31:49;;;;;;;2.60;2.28;;;19.20;53.10;;;;;;5084443;28;20209;-76
2021/04/16 09:34:19;;;;;;;5.30;2.58;;;18.80;55.60;;;;;;5086400;28;20202;-76
2021/04/16 09:36:49;;;;;;;3.63;3.20;;;18.60;55.60;;;;;;5086922;28;20204;-76
2021/04/16 09:39:31;;;;;;;2.97;2.78;;;18.60;57.10;;;;;;5085550;28;20197;-76
2021/04/16 09:41:58;;;;;;;3.70;3.13;;;18.50;56.60;;;;;;5092420;28;20204;-77
2021/04/16 09:44:46;;;;;;;5.60;2.80;;;19.00;57.40;;;;;;5086811;28;20207;-76
2021/04/16 09:47:33;;;;;;;2.90;2.58;;;19.40;54.70;;;;;;5088355;28;20467;-75
2021/04/16 09:50:01;;;;;;;4.03;2.38;;;19.70;54.70;;;;;;5096400;28;20286;-77
2021/04/16 09:53:24;;;;;;;2.97;2.55;;;19.90;53.20;;;;;;5090401;28;20211;-74
2021/04/16 09:56:10;;;;;;;3.35;2.30;;;19.90;52.90;;;;;;5046227;28;20206;-74
2021/04/16 09:59:01;;;;;;;1.42;1.33;;;20.00;51.50;;;;;;5048750;28;20231;-76
2021/04/16 10:08:30;;;;;;;5.88;2.17;;;18.30;52.60;;;;;;5114696;28;20291;-75
2021/04/16 10:11:03;;;;;;;1.50;1.40;;;17.90;53.10;;;;;;5103014;28;20202;-75
2021/04/16 10:13:34;;;;;;;2.47;2.28;;;17.90;53.00;;;;;;5106932;28;20223;-75
2021/04/16 10:16:15;;;;;;;2.55;2.00;;;17.90;51.90;;;;;;5105203;28;20199;-75
2021/04/16 10:18:41;;;;;;;1.80;1.70;;;17.80;54.30;;;;;;5103366;28;20206;-75
2021/04/16 10:21:24;;;;;;;3.70;1.52;;;18.10;53.30;;;;;;5103244;28;20203;-75
2021/04/16 10:24:21;;;;;;;2.17;1.85;;;18.00;51.30;;;;;;5103093;28;20234;-76
2021/04/16 12:39:05;;;;;;;2.17;2.03;;;14.30;52.60;;;;;;5087051;28;20640;-76
2021/04/16 12:41:34;;;;;;;2.58;2.38;;;14.50;52.70;;;;;;5099524;28;20201;-77
2021/04/16 12:44:02;;;;;;;3.30;2.80;;;14.70;52.40;;;;;;5104825;28;20227;-74
2021/04/16 12:46:33;;;;;;;3.42;3.13;;;14.80;54.00;;;;;;5092500;28;20208;-77
2021/04/16 12:48:59;;;;;;;3.58;2.22;;;14.90;52.70;;;;;;5097605;28;20238;-76
2021/04/16 12:51:26;;;;;;;2.80;2.60;;;14.70;52.00;;;;;;5091779;28;20188;-76
2021/04/16 12:53:52;;;;;;;2.45;2.35;;;14.70;52.00;;;;;;5103394;28;20210;-77
2021/04/16 12:56:24;;;;;;;3.60;2.72;;;14.60;53.30;;;;;;5091463;28;20233;-77
2021/04/16 12:58:51;;;;;;;2.92;2.65;;;14.60;53.00;;;;;;5087854;28;20214;-77
2021/04/16 13:01:24;;;;;;;2.50;2.30;;;14.70;53.10;;;;;;5089052;28;20219;-77
2021/04/16 13:03:51;;;;;;;4.20;2.10;;;14.90;53.30;;;;;;5094037;28;20239;-77
2021/04/16 13:06:26;;;;;;;5.28;1.95;;;15.00;53.60;;;;;;5092741;28;20216;-77
2021/04/16 13:08:53;;;;;;;2.75;2.03;;;15.20;53.10;;;;;;5095133;28;20216;-77
2021/04/16 13:11:21;;;;;;;5.55;1.92;;;15.10;52.80;;;;;;5094778;28;20216;-77
2021/04/16 13:13:48;;;;;;;4.93;2.47;;;15.00;52.20;;;;;;5092500;28;20680;-77
2021/04/16 13:16:15;;;;;;;4.32;2.10;;;14.90;52.90;;;;;;5089916;28;20201;-77
2021/04/16 13:18:44;;;;;;;2.80;2.60;;;14.80;52.90;;;;;;5095958;28;20207;-77
2021/04/16 13:21:15;;;;;;;3.20;2.90;;;15.00;52.70;;;;;;5105160;28;20209;-78
2021/04/16 13:23:42;;;;;;;3.58;2.40;;;15.10;53.40;;;;;;5093667;28;20238;-77
2021/04/16 13:26:08;;;;;;;3.70;2.38;;;15.20;53.80;;;;;;5092503;28;20671;-77
2021/04/16 13:28:36;;;;;;;3.00;2.70;;;15.30;52.90;;;;;;5092540;28;20211;-77
2021/04/16 13:31:03;;;;;;;2.75;2.55;;;15.30;54.50;;;;;;5097371;28;20213;-77
2021/04/16 13:33:32;;;;;;;5.38;2.42;;;15.30;52.40;;;;;;5087633;28;20203;-77
2021/04/16 13:35:59;;;;;;;2.67;2.47;;;15.30;53.20;;;;;;5088093;28;20205;-77
2021/04/16 13:38:27;;;;;;;2.53;2.05;;;15.30;52.10;;;;;;5087092;28;20203;-77
2021/04/16 13:40:55;;;;;;;2.63;2.42;;;15.50;51.70;;;;;;5093153;28;20208;-77
2021/04/16 13:43:22;;;;;;;4.43;2.78;;;15.70;52.10;;;;;;5091762;28;20225;-78
2021/04/16 13:45:51;;;;;;;3.20;2.20;;;15.80;52.20;;;;;;5092737;28;20246;-77
2021/04/16 13:48:18;;;;;;;3.22;2.90;;;15.80;53.00;;;;;;5086193;28;20664;-76
2021/04/16 13:50:45;;;;;;;4.30;2.97;;;15.70;52.50;;;;;;5087758;28;20215;-77
2021/04/16 13:53:12;;;;;;;2.45;2.22;;;15.60;53.00;;;;;;5088539;28;20215;-77
2021/04/16 13:55:39;;;;;;;6.65;2.38;;;15.50;51.70;;;;;;5090183;28;20206;-77
2021/04/16 13:58:06;;;;;;;2.70;2.38;;;15.30;53.60;;;;;;5085768;28;20207;-76
2021/04/16 14:00:36;;;;;;;2.25;2.05;;;15.20;52.60;;;;;;5093820;28;20230;-77
2021/04/16 14:03:07;;;;;;;11.43;2.65;;;15.10;52.30;;;;;;5100063;28;20238;-77
2021/04/16 14:05:35;;;;;;;3.40;2.30;;;15.00;51.90;;;;;;5101320;28;20228;-77
2021/04/16 14:08:03;;;;;;;2.30;2.10;;;15.10;52.70;;;;;;5096015;28;20578;-77
2021/04/16 14:10:32;;;;;;;2.65;2.25;;;15.20;52.20;;;;;;5090400;28;20200;-78
2021/04/16 14:12:59;;;;;;;3.28;2.20;;;15.20;52.70;;;;;;5095090;28;20209;-78
2021/04/16 14:15:34;;;;;;;2.53;2.33;;;15.30;54.30;;;;;;5097071;28;20194;-78
2021/04/16 14:18:18;;;;;;;3.05;2.75;;;15.40;53.30;;;;;;5092072;28;20225;-78
2021/04/16 14:20:45;;;;;;;9.57;2.30;;;15.60;54.50;;;;;;5090533;28;20205;-78
2021/04/16 14:23:14;;;;;;;3.13;2.30;;;15.70;53.80;;;;;;5089280;28;20227;-77
2021/04/16 14:25:41;;;;;;;1.95;1.85;;;15.70;54.00;;;;;;5092785;28;20226;-78
2021/04/16 14:28:10;;;;;;;2.78;2.17;;;15.70;52.00;;;;;;5092330;28;20710;-77
2021/04/16 14:30:38;;;;;;;3.40;2.60;;;15.70;52.20;;;;;;5096414;28;20207;-77
2021/04/16 14:33:08;;;;;;;6.43;2.45;;;15.60;52.50;;;;;;5093617;28;20211;-77
2021/04/16 14:35:35;;;;;;;2.35;2.15;;;15.50;52.00;;;;;;5086157;28;20208;-77
2021/04/16 14:38:03;;;;;;;2.92;1.58;;;15.60;52.80;;;;;;5092043;28;20209;-77
2021/04/16 14:40:31;;;;;;;3.83;2.58;;;15.60;52.80;;;;;;5089849;28;20203;-77
2021/04/16 14:42:57;;;;;;;2.78;2.55;;;15.60;51.80;;;;;;5093606;28;20249;-77
2021/04/16 14:45:26;;;;;;;3.53;2.72;;;15.50;51.50;;;;;;5091443;28;20226;-77
2021/04/16 14:47:55;;;;;;;3.47;2.35;;;15.30;51.40;;;;;;5095098;28;20206;-77
2021/04/16 14:50:23;;;;;;;3.47;2.20;;;15.30;52.00;;;;;;5097327;28;20723;-77
2021/04/16 14:52:50;;;;;;;4.70;2.05;;;15.20;52.40;;;;;;5093067;28;20202;-77
2021/04/16 14:55:21;;;;;;;2.60;2.28;;;15.20;54.50;;;;;;5093369;28;20205;-77
2021/04/16 14:57:48;;;;;;;2.40;2.20;;;15.30;53.70;;;;;;5093210;28;20302;-77
2021/04/16 15:00:17;;;;;;;3.42;2.15;;;15.50;54.80;;;;;;5100031;28;20209;-77
2021/04/16 15:02:43;;;;;;;4.05;2.50;;;15.60;52.60;;;;;;5098149;28;20216;-77
2021/04/16 15:05:18;;;;;;;2.38;2.17;;;15.60;53.70;;;;;;5091606;28;20231;-77
2021/04/16 15:07:49;;;;;;;3.50;2.35;;;15.60;52.40;;;;;;5096933;28;20903;-77
2021/04/16 15:10:19;;;;;;;4.07;2.75;;;15.50;52.30;;;;;;5095367;28;20234;-77
2021/04/16 15:12:46;;;;;;;3.08;2.88;;;15.40;52.50;;;;;;5095799;28;20215;-77
2021/04/16 15:15:25;;;;;;;4.30;2.25;;;15.30;52.10;;;;;;5096004;28;20236;-77
2021/04/16 15:17:52;;;;;;;2.20;2.10;;;15.30;52.50;;;;;;5089739;28;20211;-77
2021/04/16 15:20:26;;;;;;;3.25;2.40;;;15.30;52.90;;;;;;5092782;28;20210;-77
2021/04/16 15:22:52;;;;;;;3.05;1.98;;;15.30;52.40;;;;;;5092567;28;20240;-77
2021/04/16 15:25:20;;;;;;;3.08;2.38;;;15.30;52.40;;;;;;5092167;28;20770;-77